Time;durP1;ratioP1;P1;durP2;ratioP2;P2;SDS_P1;SDS_P2;PMS_P1;PMS_P2;Temp;Humidity;BMP_temperature;BMP_pressure;BME280_temperature;BME280_humidity;BME280_pressure;Samples;Min_cycle;Max_cycle;Signal;HPM_P1;HPM_P2
2022/06/15 00:00:54;;;;;;;8.97;5.40;;;11.00;99.90;;;;;;4980285;28;20637;-81
2022/06/15 00:03:20;;;;;;;8.77;5.30;;;11.10;99.90;;;;;;4978896;28;20207;-81
2022/06/15 00:05:49;;;;;;;9.30;5.17;;;11.20;99.90;;;;;;4979829;28;20205;-81
2022/06/15 00:08:16;;;;;;;7.50;5.00;;;11.30;99.90;;;;;;4978310;28;20289;-81
2022/06/15 00:10:42;;;;;;;7.43;5.37;;;11.20;99.90;;;;;;4976235;28;20225;-81
2022/06/15 00:13:10;;;;;;;9.53;5.13;;;11.10;99.90;;;;;;4983221;28;20237;-81
2022/06/15 00:15:37;;;;;;;7.63;4.77;;;11.00;99.90;;;;;;4982823;28;20201;-81
2022/06/15 00:18:04;;;;;;;10.10;5.20;;;11.20;99.90;;;;;;4982598;28;20730;-81
2022/06/15 00:20:31;;;;;;;8.83;5.00;;;11.30;99.90;;;;;;4982801;28;20654;-81
2022/06/15 00:22:59;;;;;;;6.40;4.67;;;11.20;99.90;;;;;;4982235;28;20692;-81
2022/06/15 00:25:26;;;;;;;13.47;5.33;;;11.30;99.90;;;;;;4982457;28;20217;-81
2022/06/15 00:27:52;;;;;;;5.03;4.17;;;11.10;99.90;;;;;;4981686;28;20205;-81
2022/06/15 00:30:21;;;;;;;8.63;4.50;;;10.90;99.90;;;;;;4980010;28;20233;-81
2022/06/15 00:32:48;;;;;;;5.13;4.10;;;10.70;99.90;;;;;;4981887;28;20214;-81
2022/06/15 00:35:16;;;;;;;7.00;4.30;;;10.50;99.90;;;;;;4981293;28;20201;-81
2022/06/15 00:37:43;;;;;;;8.17;4.40;;;10.40;99.90;;;;;;4980120;28;20209;-81
2022/06/15 00:40:12;;;;;;;5.97;4.20;;;10.30;99.90;;;;;;4981102;28;20308;-81
2022/06/15 00:42:39;;;;;;;7.47;5.30;;;10.40;99.90;;;;;;4981126;28;20574;-81
2022/06/15 00:45:06;;;;;;;7.87;5.03;;;10.40;99.90;;;;;;4980628;28;20220;-81
2022/06/15 00:47:37;;;;;;;8.07;4.80;;;10.60;99.90;;;;;;4981027;28;20617;-81
2022/06/15 00:50:08;;;;;;;6.50;4.17;;;10.80;99.90;;;;;;4980547;28;20600;-81
2022/06/15 00:52:42;;;;;;;9.03;4.53;;;11.00;99.90;;;;;;4979415;28;20920;-81
2022/06/15 00:55:15;;;;;;;7.47;4.53;;;11.10;99.90;;;;;;4978114;28;20406;-81
2022/06/15 00:57:42;;;;;;;5.67;4.10;;;11.00;99.90;;;;;;4978387;28;20201;-82
2022/06/15 01:00:12;;;;;;;5.73;3.90;;;10.20;99.90;;;;;;4978490;28;20320;-81
2022/06/15 01:02:40;;;;;;;6.27;4.53;;;9.80;99.90;;;;;;4976177;28;20221;-81
2022/06/15 01:05:12;;;;;;;5.40;4.30;;;9.90;99.90;;;;;;4976884;28;20214;-81
2022/06/15 01:08:11;;;;;;;5.87;3.97;;;9.80;99.90;;;;;;4976366;28;20465;-81
2022/06/15 01:10:55;;;;;;;6.33;4.10;;;10.10;99.90;;;;;;4973153;28;20244;-81
2022/06/15 01:13:39;;;;;;;6.37;4.20;;;10.10;99.90;;;;;;4975582;28;20224;-81
2022/06/15 01:16:12;;;;;;;8.30;4.47;;;10.00;99.90;;;;;;4979467;28;20277;-81
2022/06/15 01:18:47;;;;;;;8.40;4.40;;;10.20;99.90;;;;;;4982927;28;20656;-81
2022/06/15 01:21:21;;;;;;;5.97;4.20;;;10.00;99.90;;;;;;4982977;28;20253;-81
2022/06/15 01:24:25;;;;;;;9.43;4.87;;;10.10;99.90;;;;;;4981216;28;20190;-81
2022/06/15 01:27:31;;;;;;;7.07;4.80;;;10.30;99.90;;;;;;4970859;28;20296;-81
2022/06/15 01:30:20;;;;;;;7.00;4.10;;;10.50;99.90;;;;;;4982836;28;20312;-81
2022/06/15 01:33:13;;;;;;;6.93;4.37;;;10.60;99.90;;;;;;4982839;28;20202;-81
2022/06/15 01:35:47;;;;;;;6.23;4.20;;;10.60;99.90;;;;;;4982858;28;20258;-81
2022/06/15 01:38:25;;;;;;;6.20;3.60;;;10.50;99.90;;;;;;4983891;28;20261;-81
2022/06/15 01:40:58;;;;;;;6.07;3.80;;;10.40;99.90;;;;;;4982343;28;20245;-81
2022/06/15 01:43:28;;;;;;;9.43;4.80;;;10.50;99.90;;;;;;4981908;28;20230;-81
2022/06/15 01:45:59;;;;;;;6.03;4.70;;;10.60;99.90;;;;;;4982425;28;20217;-81
2022/06/15 01:48:28;;;;;;;6.73;4.00;;;10.50;99.90;;;;;;4983005;28;20342;-81
2022/06/15 01:50:59;;;;;;;7.63;4.10;;;10.20;99.90;;;;;;4982815;28;20237;-81
2022/06/15 01:53:30;;;;;;;5.50;4.20;;;9.40;99.90;;;;;;4982103;28;20241;-81
2022/06/15 01:56:03;;;;;;;8.00;4.47;;;9.10;99.90;;;;;;4983177;28;20214;-81
2022/06/15 01:58:33;;;;;;;7.50;4.67;;;9.30;99.90;;;;;;4995572;28;20207;-81
2022/06/15 02:01:09;;;;;;;7.30;5.13;;;9.30;99.90;;;;;;5002494;28;20301;-81
2022/06/15 02:03:42;;;;;;;9.57;5.50;;;9.70;99.90;;;;;;5000594;28;20623;-81
2022/06/15 02:06:20;;;;;;;9.40;4.80;;;9.90;99.90;;;;;;4999908;28;20189;-81
2022/06/15 02:08:53;;;;;;;6.67;5.50;;;10.00;99.90;;;;;;5001299;28;20208;-81
2022/06/15 02:11:26;;;;;;;8.80;6.67;;;10.20;99.90;;;;;;5000246;28;20304;-81
2022/06/15 02:13:58;;;;;;;7.87;4.53;;;10.30;99.90;;;;;;4999832;28;20638;-81
2022/06/15 02:16:32;;;;;;;7.93;4.13;;;10.00;99.90;;;;;;5001167;28;20291;-81
2022/06/15 02:19:01;;;;;;;4.70;4.20;;;9.10;99.90;;;;;;5001397;28;20284;-81
2022/06/15 02:21:29;;;;;;;5.83;4.60;;;9.10;99.90;;;;;;5001867;28;20701;-81
2022/06/15 02:24:00;;;;;;;7.63;5.37;;;9.30;99.90;;;;;;5000781;28;20283;-81
2022/06/15 02:26:31;;;;;;;9.73;5.87;;;9.60;99.90;;;;;;5001725;28;20269;-81
2022/06/15 02:29:03;;;;;;;9.67;6.03;;;10.00;99.90;;;;;;5000637;28;20193;-81
2022/06/15 02:31:31;;;;;;;9.27;6.30;;;10.10;99.90;;;;;;5001673;28;20736;-81
2022/06/15 02:33:59;;;;;;;7.13;5.10;;;10.20;99.90;;;;;;5000082;28;20208;-81
2022/06/15 02:36:26;;;;;;;7.10;4.50;;;10.20;99.90;;;;;;5000054;28;20205;-81
2022/06/15 02:38:53;;;;;;;6.40;5.00;;;9.50;99.90;;;;;;5000970;28;20215;-81
2022/06/15 02:41:21;;;;;;;6.90;4.23;;;9.20;99.90;;;;;;5000268;28;20292;-81
2022/06/15 02:43:51;;;;;;;6.47;4.40;;;9.20;99.90;;;;;;4999903;28;20752;-81
2022/06/15 02:46:19;;;;;;;6.73;4.23;;;9.20;99.90;;;;;;4999777;28;20296;-81
2022/06/15 02:48:47;;;;;;;7.53;5.07;;;9.30;99.90;;;;;;5000364;28;20290;-81
2022/06/15 02:51:18;;;;;;;8.50;4.83;;;9.50;99.90;;;;;;5000339;28;20705;-81
2022/06/15 02:53:47;;;;;;;8.97;6.07;;;9.70;99.90;;;;;;4999947;28;20204;-81
2022/06/15 02:56:15;;;;;;;11.30;5.80;;;9.90;99.90;;;;;;5000244;28;20283;-81
2022/06/15 02:58:45;;;;;;;8.70;5.20;;;10.00;99.90;;;;;;5000515;28;20297;-81
2022/06/15 03:01:12;;;;;;;7.87;5.23;;;10.00;99.90;;;;;;5001014;28;20221;-81
2022/06/15 03:03:40;;;;;;;7.97;5.33;;;10.00;99.90;;;;;;5000856;28;20280;-81
2022/06/15 03:06:10;;;;;;;7.07;5.47;;;10.00;99.90;;;;;;5000993;28;20223;-82
2022/06/15 03:08:37;;;;;;;10.73;5.87;;;10.00;99.90;;;;;;4982989;28;20209;-81
2022/06/15 03:11:04;;;;;;;9.03;6.07;;;10.00;99.90;;;;;;4979361;28;20233;-82
2022/06/15 03:13:31;;;;;;;8.47;4.50;;;10.10;99.90;;;;;;4979917;28;20202;-81
2022/06/15 03:15:59;;;;;;;5.90;4.30;;;9.70;99.90;;;;;;4977111;28;20754;-82
2022/06/15 03:18:26;;;;;;;9.47;5.67;;;9.80;99.90;;;;;;4979316;28;20233;-81
2022/06/15 03:20:56;;;;;;;6.83;4.93;;;9.90;99.90;;;;;;4978552;28;20587;-81
2022/06/15 03:23:26;;;;;;;10.03;4.40;;;10.10;99.90;;;;;;4981639;28;20197;-81
2022/06/15 03:25:54;;;;;;;10.67;5.20;;;10.20;99.90;;;;;;4995378;28;20579;-82
2022/06/15 03:28:21;;;;;;;6.37;4.77;;;10.20;99.90;;;;;;4998385;28;20213;-82
2022/06/15 03:30:48;;;;;;;8.83;5.00;;;10.00;99.90;;;;;;4997910;28;20239;-82
2022/06/15 03:33:14;;;;;;;8.67;5.03;;;10.20;99.90;;;;;;4998391;28;20748;-82
2022/06/15 03:35:42;;;;;;;7.67;5.07;;;10.10;99.90;;;;;;4997857;28;20467;-81
2022/06/15 03:38:10;;;;;;;8.37;5.43;;;10.20;99.90;;;;;;4997938;28;20296;-81
2022/06/15 03:40:40;;;;;;;8.77;5.63;;;10.30;99.90;;;;;;4997444;28;20312;-82
2022/06/15 03:43:07;;;;;;;7.90;5.50;;;10.20;99.90;;;;;;4997142;28;20282;-82
2022/06/15 03:45:35;;;;;;;8.33;5.57;;;10.40;99.90;;;;;;4997962;28;20661;-82
2022/06/15 03:48:03;;;;;;;7.57;5.40;;;10.30;99.90;;;;;;5001876;28;20215;-82
2022/06/15 03:50:31;;;;;;;10.17;5.63;;;10.50;99.90;;;;;;5001375;28;20645;-82
2022/06/15 03:52:58;;;;;;;8.33;5.67;;;10.50;99.90;;;;;;5000565;28;20208;-82
2022/06/15 03:55:28;;;;;;;9.70;5.97;;;10.60;99.90;;;;;;4999275;28;20209;-82
2022/06/15 03:57:56;;;;;;;6.73;5.80;;;10.70;99.90;;;;;;5001390;28;20576;-82
2022/06/15 04:00:25;;;;;;;8.93;5.57;;;10.70;99.90;;;;;;5000645;28;20220;-82
2022/06/15 04:02:52;;;;;;;9.17;5.90;;;10.80;99.90;;;;;;5000089;28;20264;-82
2022/06/15 04:05:22;;;;;;;10.53;5.33;;;11.10;99.90;;;;;;5001228;28;20212;-82
2022/06/15 04:10:33;;;;;;;8.97;5.50;;;11.90;99.90;;;;;;4997958;28;20775;-83
2022/06/15 04:13:02;;;;;;;8.47;6.07;;;13.60;99.90;;;;;;4997327;28;20207;-83
2022/06/15 04:15:29;;;;;;;15.07;7.90;;;14.10;99.90;;;;;;4997202;28;20219;-82
2022/06/15 04:17:56;;;;;;;7.80;5.00;;;14.60;99.90;;;;;;4996513;28;20295;-82
2022/06/15 04:20:34;;;;;;;7.20;4.60;;;15.10;99.90;;;;;;4997373;28;20276;-82
2022/06/15 04:23:01;;;;;;;4.30;3.70;;;15.90;99.90;;;;;;4997556;28;20625;-83
2022/06/15 04:25:29;;;;;;;8.30;4.17;;;16.00;99.90;;;;;;4995984;28;20217;-82
2022/06/15 04:27:56;;;;;;;6.47;4.37;;;14.80;99.90;;;;;;4994682;28;20201;-82
2022/06/15 04:30:25;;;;;;;7.90;4.37;;;13.90;99.90;;;;;;4966184;28;20221;-82
2022/06/15 04:32:52;;;;;;;8.73;4.57;;;13.20;99.90;;;;;;4974085;28;20224;-81
2022/06/15 04:35:19;;;;;;;11.67;4.97;;;13.10;99.90;;;;;;4974184;28;20217;-81
2022/06/15 04:37:46;;;;;;;9.67;5.10;;;13.20;99.90;;;;;;4971862;28;20220;-81
2022/06/15 04:40:13;;;;;;;8.83;4.83;;;14.10;99.90;;;;;;4964369;28;20648;-82
2022/06/15 04:42:41;;;;;;;6.13;4.60;;;14.10;99.90;;;;;;4975544;28;20198;-82
2022/06/15 04:45:09;;;;;;;9.83;4.80;;;13.60;99.90;;;;;;4975279;28;20210;-82
2022/06/15 04:47:38;;;;;;;7.70;4.80;;;13.00;99.90;;;;;;4969278;28;20209;-82
2022/06/15 04:50:07;;;;;;;8.50;4.40;;;13.00;99.90;;;;;;4974831;28;20233;-82
2022/06/15 04:52:35;;;;;;;7.87;4.50;;;13.10;99.90;;;;;;4976910;28;20641;-82
2022/06/15 04:55:02;;;;;;;8.07;4.60;;;13.10;99.90;;;;;;4971022;28;20245;-82
2022/06/15 04:57:29;;;;;;;8.53;5.03;;;13.10;99.90;;;;;;4975132;28;20213;-82
2022/06/15 04:59:56;;;;;;;7.30;5.60;;;13.30;99.90;;;;;;4971845;28;20226;-82
2022/06/15 05:02:23;;;;;;;8.60;5.10;;;13.30;99.90;;;;;;4975561;28;20631;-82
2022/06/15 05:04:51;;;;;;;9.17;5.47;;;13.40;99.90;;;;;;4973836;28;20653;-82
2022/06/15 05:07:18;;;;;;;7.50;5.40;;;13.50;99.90;;;;;;4980831;28;20220;-83
2022/06/15 05:09:47;;;;;;;6.97;4.70;;;14.30;99.90;;;;;;4975405;28;20236;-83
2022/06/15 05:12:14;;;;;;;8.67;4.87;;;14.60;99.90;;;;;;4973944;28;20214;-83
2022/06/15 05:14:41;;;;;;;8.13;4.70;;;14.60;99.90;;;;;;4967173;28;20229;-82
2022/06/15 05:17:08;;;;;;;7.93;5.33;;;14.50;99.90;;;;;;4979176;28;20719;-82
2022/06/15 05:19:34;;;;;;;7.10;5.07;;;14.20;99.90;;;;;;4971423;28;20226;-81
2022/06/15 05:22:03;;;;;;;8.20;4.60;;;14.10;99.90;;;;;;4973050;28;20206;-81
2022/06/15 05:24:30;;;;;;;8.63;5.17;;;13.80;99.90;;;;;;4976262;28;20290;-82
2022/06/15 05:26:56;;;;;;;6.60;4.93;;;14.50;99.90;;;;;;4970916;28;20289;-82
2022/06/15 05:29:24;;;;;;;8.17;4.87;;;15.00;99.90;;;;;;4975523;28;20202;-82
2022/06/15 05:31:51;;;;;;;11.63;4.87;;;14.30;99.90;;;;;;4969087;28;20226;-82
2022/06/15 05:34:18;;;;;;;8.17;4.93;;;14.20;99.90;;;;;;4972599;28;20208;-80
2022/06/15 05:36:45;;;;;;;8.37;4.90;;;14.10;99.90;;;;;;4967141;28;20317;-81
2022/06/15 05:39:14;;;;;;;13.33;5.37;;;14.60;99.90;;;;;;4976038;28;20215;-81
2022/06/15 05:41:41;;;;;;;10.53;5.60;;;14.50;99.90;;;;;;4973870;28;20198;-81
2022/06/15 05:44:08;;;;;;;10.20;4.90;;;15.90;99.90;;;;;;4969452;28;20202;-82
2022/06/15 05:46:39;;;;;;;12.63;4.97;;;16.10;99.90;;;;;;4971995;28;20304;-82
2022/06/15 05:49:06;;;;;;;7.50;4.87;;;15.10;99.90;;;;;;4976016;28;20206;-81
2022/06/15 05:51:33;;;;;;;8.43;5.10;;;15.00;99.90;;;;;;4972005;28;20235;-81
2022/06/15 05:54:00;;;;;;;12.63;5.37;;;15.20;99.90;;;;;;4965911;28;20249;-81
2022/06/15 05:56:28;;;;;;;10.67;4.83;;;15.80;99.90;;;;;;4976833;28;20193;-82
2022/06/15 05:58:55;;;;;;;8.47;5.20;;;15.20;99.90;;;;;;4966559;28;20226;-82
2022/06/15 06:01:25;;;;;;;8.50;4.93;;;14.90;99.90;;;;;;4967349;28;20233;-82
2022/06/15 06:03:52;;;;;;;11.00;5.20;;;14.80;99.90;;;;;;4975055;28;20202;-82
2022/06/15 06:06:19;;;;;;;9.63;5.30;;;14.90;99.90;;;;;;4969388;28;20289;-82
2022/06/15 06:08:46;;;;;;;8.50;5.20;;;15.10;99.90;;;;;;4967505;28;20198;-82
2022/06/15 06:11:13;;;;;;;6.17;4.60;;;15.40;99.90;;;;;;4971755;28;20232;-81
2022/06/15 06:13:42;;;;;;;10.60;4.93;;;15.50;99.90;;;;;;4967010;28;20208;-81
2022/06/15 06:16:09;;;;;;;8.13;4.90;;;15.50;99.90;;;;;;4971755;28;20570;-81
2022/06/15 06:18:36;;;;;;;6.67;4.53;;;15.60;99.90;;;;;;4969935;28;20201;-82
2022/06/15 06:21:05;;;;;;;10.53;5.23;;;15.50;99.90;;;;;;4970137;28;20232;-82
2022/06/15 06:23:31;;;;;;;8.43;4.80;;;15.40;99.90;;;;;;4972249;28;20256;-81
2022/06/15 06:25:58;;;;;;;12.97;5.70;;;15.50;99.90;;;;;;4974941;28;20265;-81
2022/06/15 06:28:28;;;;;;;11.00;4.63;;;15.60;99.90;;;;;;4973513;28;20292;-81
2022/06/15 06:30:58;;;;;;;8.83;5.27;;;15.50;99.90;;;;;;4969141;28;20230;-81
2022/06/15 06:33:26;;;;;;;10.73;4.27;;;15.60;99.90;;;;;;4967995;28;20228;-81
2022/06/15 06:35:54;;;;;;;10.93;5.23;;;15.60;99.90;;;;;;4971384;28;20213;-82
2022/06/15 06:38:21;;;;;;;9.90;5.13;;;15.70;99.90;;;;;;4973093;28;20201;-82
2022/06/15 06:40:48;;;;;;;10.48;4.72;;;15.90;99.90;;;;;;4965280;28;20226;-82
2022/06/15 06:43:15;;;;;;;6.70;4.37;;;16.00;99.90;;;;;;4972240;28;20758;-81
2022/06/15 06:45:42;;;;;;;9.17;4.60;;;16.00;99.90;;;;;;4965542;28;20206;-81
2022/06/15 06:48:11;;;;;;;8.03;4.50;;;16.00;99.90;;;;;;4972166;28;20686;-81
2022/06/15 06:50:39;;;;;;;9.37;5.37;;;16.00;99.90;;;;;;4966503;28;20606;-82
2022/06/15 06:53:06;;;;;;;10.93;5.83;;;16.10;99.90;;;;;;4972716;28;20210;-82
2022/06/15 06:55:33;;;;;;;11.97;5.67;;;16.20;99.90;;;;;;4965571;28;20202;-81
2022/06/15 06:58:01;;;;;;;10.20;5.57;;;16.10;99.90;;;;;;4970749;28;20207;-82
2022/06/15 07:00:29;;;;;;;10.37;4.87;;;16.20;99.90;;;;;;4970086;28;20221;-82
2022/06/15 07:02:58;;;;;;;8.00;5.60;;;16.10;99.90;;;;;;4972954;28;20202;-82
2022/06/15 07:05:26;;;;;;;11.93;5.40;;;16.20;99.90;;;;;;4976240;28;20208;-82
2022/06/15 07:07:53;;;;;;;8.37;5.53;;;16.20;99.90;;;;;;4972313;28;20233;-81
2022/06/15 07:10:21;;;;;;;13.03;5.67;;;16.30;99.90;;;;;;4970033;28;20229;-82
2022/06/15 07:12:48;;;;;;;14.07;5.73;;;16.40;99.90;;;;;;4962816;28;20213;-81
2022/06/15 07:15:15;;;;;;;11.70;6.55;;;16.50;99.90;;;;;;4972793;28;20586;-82
2022/06/15 07:17:43;;;;;;;12.38;5.88;;;16.40;99.90;;;;;;4964823;28;20209;-81
2022/06/15 07:20:11;;;;;;;10.37;5.83;;;16.60;99.90;;;;;;4974544;28;20241;-82
2022/06/15 07:22:40;;;;;;;10.13;6.25;;;16.60;99.90;;;;;;4964318;28;20623;-81
2022/06/15 07:25:08;;;;;;;9.45;6.10;;;16.80;99.90;;;;;;4971498;28;20206;-82
2022/06/15 07:27:36;;;;;;;14.95;5.68;;;16.70;99.90;;;;;;4971194;28;20202;-83
2022/06/15 07:30:04;;;;;;;11.10;6.15;;;16.80;99.90;;;;;;4973471;28;20321;-84
2022/06/15 07:32:31;;;;;;;11.83;6.53;;;16.80;99.90;;;;;;4963937;28;20230;-83
2022/06/15 07:34:58;;;;;;;14.10;6.30;;;16.90;99.90;;;;;;4966086;28;20608;-83
2022/06/15 07:37:25;;;;;;;10.52;6.20;;;17.00;99.90;;;;;;4965092;28;20208;-83
2022/06/15 07:39:53;;;;;;;7.80;5.55;;;17.00;99.90;;;;;;4973026;28;20236;-83
2022/06/15 07:42:20;;;;;;;14.30;6.50;;;17.20;99.90;;;;;;4967522;28;20651;-83
2022/06/15 07:44:47;;;;;;;10.68;5.90;;;17.10;99.90;;;;;;4961714;28;20199;-83
2022/06/15 07:49:58;;;;;;;11.25;6.45;;;17.40;99.90;;;;;;4960472;28;20237;-83
2022/06/15 07:52:27;;;;;;;11.07;6.10;;;17.50;99.90;;;;;;4969919;28;20220;-84
2022/06/15 07:54:56;;;;;;;14.13;6.68;;;17.50;99.90;;;;;;4958870;28;20586;-83
2022/06/15 07:57:24;;;;;;;10.77;6.72;;;17.60;99.90;;;;;;4965163;28;20201;-82
2022/06/15 07:59:51;;;;;;;8.35;5.30;;;17.80;99.90;;;;;;4965820;28;20239;-83
2022/06/15 08:02:18;;;;;;;8.02;5.18;;;17.90;99.90;;;;;;4970051;28;20265;-83
2022/06/15 08:04:45;;;;;;;9.88;5.55;;;17.80;99.90;;;;;;4963907;28;20296;-83
2022/06/15 08:07:14;;;;;;;11.05;6.03;;;17.80;99.90;;;;;;4967073;28;20206;-83
2022/06/15 08:09:42;;;;;;;9.35;5.65;;;17.80;99.90;;;;;;4968697;28;20304;-83
2022/06/15 08:12:12;;;;;;;14.10;6.03;;;18.00;99.90;;;;;;4973465;28;20221;-83
2022/06/15 08:14:41;;;;;;;8.75;5.90;;;18.00;99.90;;;;;;4972859;28;20289;-83
2022/06/15 08:17:09;;;;;;;9.77;5.60;;;18.10;99.90;;;;;;4968393;28;20637;-83
2022/06/15 08:19:38;;;;;;;8.93;6.18;;;18.20;99.90;;;;;;4969854;28;20232;-83
2022/06/15 08:22:05;;;;;;;10.20;6.55;;;18.30;99.90;;;;;;4970797;28;20212;-83
2022/06/15 08:24:32;;;;;;;8.45;5.07;;;18.40;99.90;;;;;;4976169;28;20265;-83
2022/06/15 08:26:59;;;;;;;9.55;5.00;;;18.50;99.90;;;;;;4962289;28;20293;-83
2022/06/15 08:29:28;;;;;;;13.40;4.93;;;18.70;99.90;;;;;;4978113;28;20205;-83
2022/06/15 08:31:57;;;;;;;11.32;5.90;;;18.50;99.90;;;;;;4974954;28;20577;-83
2022/06/15 08:34:24;;;;;;;9.35;5.57;;;18.40;99.90;;;;;;4975969;28;20205;-82
2022/06/15 08:36:51;;;;;;;7.90;4.70;;;18.60;99.90;;;;;;4971177;28;20650;-82
2022/06/15 08:39:18;;;;;;;8.95;4.55;;;18.60;99.20;;;;;;4959064;29;20232;-82
2022/06/15 08:41:55;;;;;;;7.65;4.50;;;18.60;99.90;;;;;;4957750;28;20586;-82
2022/06/15 08:44:31;;;;;;;6.38;4.72;;;18.90;99.90;;;;;;4959050;29;20206;-82
2022/06/15 08:47:09;;;;;;;8.75;4.72;;;19.00;99.90;;;;;;4957180;28;20675;-82
2022/06/15 08:49:48;;;;;;;9.70;4.72;;;19.10;98.40;;;;;;4959826;29;20252;-82
2022/06/15 08:52:18;;;;;;;7.80;4.13;;;19.20;96.50;;;;;;4959461;28;20434;-82
2022/06/15 08:54:54;;;;;;;7.38;3.88;;;19.80;99.90;;;;;;4958881;29;20654;-82
2022/06/15 08:57:29;;;;;;;11.77;4.13;;;20.00;95.00;;;;;;4958069;28;20216;-81
2022/06/15 09:00:03;;;;;;;6.45;4.15;;;20.00;91.50;;;;;;4958031;29;20222;-81
2022/06/15 09:02:38;;;;;;;7.78;3.90;;;20.30;90.70;;;;;;4956925;28;20210;-82
2022/06/15 09:05:14;;;;;;;6.75;4.32;;;20.70;87.90;;;;;;4958799;29;20216;-82
2022/06/15 09:08:01;;;;;;;11.02;4.32;;;21.10;82.70;;;;;;4964513;28;20248;-82
2022/06/15 09:10:40;;;;;;;6.15;4.00;;;21.10;88.50;;;;;;4968917;28;20252;-82
2022/06/15 09:13:20;;;;;;;10.02;4.18;;;21.30;85.20;;;;;;4975130;28;20217;-82
2022/06/15 09:15:56;;;;;;;7.28;3.33;;;21.70;83.90;;;;;;4971903;28;20210;-82
2022/06/15 09:18:28;;;;;;;4.28;3.63;;;21.80;77.70;;;;;;4976471;28;20295;-83
2022/06/15 09:21:01;;;;;;;5.50;3.30;;;22.30;76.00;;;;;;4970551;28;20236;-82
2022/06/15 09:23:32;;;;;;;6.32;4.20;;;22.10;68.40;;;;;;4958829;28;20240;-82
2022/06/15 09:26:03;;;;;;;6.45;3.13;;;22.40;65.50;;;;;;4957038;29;20205;-82
2022/06/15 09:28:37;;;;;;;8.07;3.95;;;22.60;66.30;;;;;;4957126;28;20312;-82
2022/06/15 09:31:10;;;;;;;8.55;3.67;;;22.50;61.30;;;;;;4956775;29;20312;-82
2022/06/15 09:33:41;;;;;;;8.43;4.10;;;22.30;64.10;;;;;;4957140;29;20203;-82
2022/06/15 09:36:13;;;;;;;6.28;3.08;;;22.50;64.80;;;;;;4966180;28;20202;-82
2022/06/15 09:38:41;;;;;;;8.23;2.70;;;22.80;58.00;;;;;;4976492;28;20202;-83
2022/06/15 09:41:15;;;;;;;4.93;3.08;;;23.30;53.90;;;;;;4961059;28;20226;-83
2022/06/15 09:43:57;;;;;;;8.38;3.58;;;23.40;64.70;;;;;;4957757;28;20210;-82
2022/06/15 09:46:33;;;;;;;4.03;2.40;;;23.10;59.70;;;;;;4958289;28;20225;-82
2022/06/15 09:49:13;;;;;;;5.82;3.10;;;23.10;54.70;;;;;;4956373;29;20288;-83
2022/06/15 09:51:49;;;;;;;4.10;2.97;;;23.60;54.30;;;;;;4957697;28;20689;-82
2022/06/15 09:54:24;;;;;;;6.03;3.20;;;23.30;54.20;;;;;;4979714;28;20213;-82
2022/06/15 09:56:52;;;;;;;4.82;3.03;;;23.30;52.70;;;;;;4961268;28;20216;-82
2022/06/15 09:59:22;;;;;;;6.80;2.67;;;23.60;50.90;;;;;;4979773;28;20202;-82
2022/06/15 10:01:50;;;;;;;3.13;2.50;;;24.00;46.60;;;;;;4972326;28;20208;-83
2022/06/15 10:04:20;;;;;;;5.07;2.20;;;24.20;42.80;;;;;;4973232;28;20195;-82
2022/06/15 10:06:52;;;;;;;5.45;2.92;;;23.90;46.10;;;;;;4971993;28;20209;-83
2022/06/15 10:09:23;;;;;;;5.50;2.70;;;23.50;49.90;;;;;;4997319;28;20681;-83
2022/06/15 10:11:53;;;;;;;5.85;2.58;;;23.30;46.40;;;;;;4978841;28;20222;-81
2022/06/15 10:14:27;;;;;;;5.13;2.70;;;23.60;44.30;;;;;;4965775;28;20292;-81
2022/06/15 10:16:59;;;;;;;5.68;2.80;;;24.20;54.90;;;;;;4965297;28;20198;-81
2022/06/15 10:19:28;;;;;;;6.72;2.80;;;23.60;43.10;;;;;;4960080;28;20289;-81
2022/06/15 10:21:58;;;;;;;5.80;2.63;;;24.10;41.30;;;;;;4965103;28;20202;-81
2022/06/15 10:24:28;;;;;;;6.22;3.10;;;24.60;41.40;;;;;;4972378;28;20674;-81
2022/06/15 10:27:22;;;;;;;3.97;2.45;;;24.00;39.50;;;;;;4970545;28;20256;-81
2022/06/15 10:29:59;;;;;;;6.28;2.55;;;24.50;45.50;;;;;;4964323;28;20233;-81
2022/06/15 10:32:31;;;;;;;4.60;2.70;;;24.50;41.90;;;;;;4962656;28;20225;-81
2022/06/15 10:35:09;;;;;;;7.13;2.83;;;24.30;37.40;;;;;;4966761;28;20210;-81
2022/06/15 10:37:40;;;;;;;6.18;2.58;;;24.10;43.10;;;;;;4969886;28;20207;-81
2022/06/15 10:40:21;;;;;;;3.63;2.40;;;24.10;47.10;;;;;;4967727;28;20681;-81
2022/06/15 10:42:51;;;;;;;3.92;2.22;;;24.50;45.50;;;;;;4966763;28;20216;-81
2022/06/15 10:45:23;;;;;;;4.35;2.38;;;24.40;34.60;;;;;;4969255;28;20221;-81
2022/06/15 10:47:56;;;;;;;5.57;2.20;;;25.00;34.90;;;;;;4964897;28;20202;-81
2022/06/15 10:50:28;;;;;;;6.53;2.50;;;24.50;34.10;;;;;;4964361;28;20287;-82
2022/06/15 10:52:59;;;;;;;5.47;2.63;;;25.30;34.40;;;;;;4965644;28;20235;-83
2022/06/15 11:04:13;;;;;;;4.38;2.35;;;25.30;29.70;;;;;;4978243;28;20215;-81
2022/06/15 11:06:45;;;;;;;4.28;2.40;;;25.10;34.20;;;;;;4967696;28;20565;-81
2022/06/15 11:09:25;;;;;;;4.55;2.35;;;24.90;28.90;;;;;;4962592;28;20210;-81
2022/06/15 11:11:53;;;;;;;4.38;2.63;;;24.60;34.20;;;;;;4960553;28;20284;-81
2022/06/15 11:14:26;;;;;;;4.22;2.20;;;24.40;30.10;;;;;;4963685;28;20214;-81
2022/06/15 11:19:53;;;;;;;7.75;2.47;;;24.80;35.60;;;;;;4961033;28;20275;-81
2022/06/15 11:22:22;;;;;;;3.47;2.25;;;24.90;34.30;;;;;;4964110;28;20197;-81
2022/06/15 11:24:55;;;;;;;4.47;2.63;;;25.40;30.70;;;;;;4960011;28;20205;-81
2022/06/15 11:27:27;;;;;;;4.72;2.15;;;25.10;34.50;;;;;;4960004;28;20244;-81
2022/06/15 11:29:58;;;;;;;5.93;2.00;;;25.20;34.30;;;;;;4955865;28;20234;-81
2022/06/15 11:32:41;;;;;;;5.00;2.85;;;25.40;32.20;;;;;;4961900;28;20594;-81
2022/06/15 11:35:28;;;;;;;5.63;2.50;;;26.20;25.90;;;;;;4963394;28;20202;-82
2022/06/15 11:37:59;;;;;;;4.97;2.60;;;26.20;26.60;;;;;;4964206;28;20237;-82
2022/06/15 11:40:35;;;;;;;3.70;2.30;;;25.70;29.70;;;;;;4962536;28;20233;-83
2022/06/15 11:43:04;;;;;;;4.18;2.35;;;24.90;29.40;;;;;;4979896;28;20263;-82
2022/06/15 11:45:41;;;;;;;4.05;2.13;;;25.10;33.30;;;;;;4976226;28;20212;-83
2022/06/15 11:48:15;;;;;;;4.43;2.13;;;25.50;28.90;;;;;;4995489;28;20291;-83
2022/06/15 11:50:51;;;;;;;5.13;2.60;;;25.30;30.60;;;;;;4993854;28;21050;-82
2022/06/15 11:53:28;;;;;;;3.92;2.13;;;25.40;26.80;;;;;;4994644;28;20319;-82
2022/06/15 11:56:01;;;;;;;4.60;2.28;;;25.50;28.40;;;;;;4994683;28;20219;-82
2022/06/15 11:58:36;;;;;;;3.78;2.10;;;26.00;27.30;;;;;;4995006;28;20201;-82
2022/06/15 12:01:12;;;;;;;6.25;2.15;;;26.00;26.40;;;;;;4995894;28;20234;-82
2022/06/15 12:04:08;;;;;;;3.95;2.10;;;26.40;23.30;;;;;;4995041;28;20207;-82
2022/06/15 12:06:44;;;;;;;4.55;2.17;;;26.90;21.60;;;;;;4995109;28;20272;-81
2022/06/15 12:09:16;;;;;;;4.00;2.15;;;27.40;22.80;;;;;;4998533;28;20696;-82
2022/06/15 12:14:46;;;;;;;3.20;2.15;;;26.70;20.90;;;;;;4998190;28;20740;-82
2022/06/15 12:17:20;;;;;;;3.42;2.28;;;27.60;20.80;;;;;;4996744;28;20591;-81
2022/06/15 12:19:54;;;;;;;6.20;2.63;;;26.80;22.50;;;;;;4972609;28;20311;-81
2022/06/15 12:22:28;;;;;;;4.18;2.63;;;26.80;21.80;;;;;;4969795;28;20221;-81
2022/06/15 12:25:01;;;;;;;4.95;2.10;;;26.00;23.00;;;;;;4978223;28;20240;-82
2022/06/15 12:27:39;;;;;;;3.22;2.17;;;25.70;21.30;;;;;;4978778;28;20209;-82
2022/06/15 12:30:18;;;;;;;4.25;2.38;;;25.80;26.40;;;;;;4976265;28;20317;-81
2022/06/15 12:32:59;;;;;;;2.72;2.35;;;25.60;24.00;;;;;;4977230;28;20644;-82
2022/06/15 12:35:38;;;;;;;4.43;2.40;;;26.00;24.90;;;;;;4972449;28;20207;-82
2022/06/15 12:38:17;;;;;;;3.95;2.55;;;27.00;19.20;;;;;;4975586;28;20201;-81
2022/06/15 12:40:49;;;;;;;5.28;2.10;;;26.40;20.80;;;;;;4978094;28;20223;-81
2022/06/15 12:43:29;;;;;;;4.38;2.00;;;26.90;15.00;;;;;;4974314;28;20209;-81
2022/06/15 12:46:07;;;;;;;5.47;2.22;;;26.90;17.10;;;;;;4980692;28;20221;-82
2022/06/15 12:48:42;;;;;;;3.25;2.10;;;27.40;14.20;;;;;;4977996;28;20218;-83
2022/06/15 12:51:13;;;;;;;3.03;2.00;;;27.20;15.40;;;;;;4980979;28;20229;-82
2022/06/15 12:53:53;;;;;;;3.50;1.90;;;27.30;13.60;;;;;;4981443;28;20233;-83
2022/06/15 12:56:30;;;;;;;4.55;2.35;;;27.40;16.40;;;;;;4977785;28;20198;-82
2022/06/15 12:59:08;;;;;;;4.00;2.60;;;27.60;13.10;;;;;;4975568;28;20797;-83
2022/06/15 13:01:44;;;;;;;2.72;2.13;;;27.60;14.20;;;;;;4980997;28;20237;-83
2022/06/15 13:04:27;;;;;;;2.28;1.88;;;27.60;12.70;;;;;;4979313;28;20285;-82
2022/06/15 13:07:22;;;;;;;4.70;2.10;;;27.60;12.00;;;;;;4985364;28;20272;-83
2022/06/15 13:10:32;;;;;;;2.42;1.95;;;27.50;9.40;;;;;;4977704;28;20317;-83
2022/06/15 13:13:04;;;;;;;2.40;1.90;;;28.20;9.80;;;;;;4981461;28;20228;-83
2022/06/15 13:15:37;;;;;;;2.22;2.03;;;28.50;10.60;;;;;;4974917;28;20202;-83
2022/06/15 13:18:11;;;;;;;2.28;1.92;;;28.50;11.70;;;;;;4975478;28;20214;-83
2022/06/15 13:21:04;;;;;;;4.65;2.40;;;27.50;10.10;;;;;;4972076;28;20234;-82
2022/06/15 13:23:36;;;;;;;4.05;1.98;;;27.70;10.80;;;;;;4976930;28;20706;-80
2022/06/15 13:26:07;;;;;;;2.17;1.80;;;28.30;10.40;;;;;;4984594;28;20575;-82